sensor_id;sensor_type;location;lat;lon;timestamp;temperature;humidity
49124;DHT22;48506;48.202;16.274;2022-10-31T00:00:22;13.90;99.90
49124;DHT22;48506;48.202;16.274;2022-10-31T00:02:48;13.90;99.90
49124;DHT22;48506;48.202;16.274;2022-10-31T00:05:13;13.90;99.90
49124;DHT22;48506;48.202;16.274;2022-10-31T00:07:39;14.00;99.90
49124;DHT22;48506;48.202;16.274;2022-10-31T00:10:05;14.00;99.90
49124;DHT22;48506;48.202;16.274;2022-10-31T00:12:31;14.00;99.90
49124;DHT22;48506;48.202;16.274;2022-10-31T00:14:57;14.00;99.90
49124;DHT22;48506;48.202;16.274;2022-10-31T00:17:23;14.00;99.90
49124;DHT22;48506;48.202;16.274;2022-10-31T00:19:49;14.00;99.90
49124;DHT22;48506;48.202;16.274;2022-10-31T00:22:15;14.00;99.90
49124;DHT22;48506;48.202;16.274;2022-10-31T00:24:40;14.10;99.90
49124;DHT22;48506;48.202;16.274;2022-10-31T00:27:06;14.10;99.90
49124;DHT22;48506;48.202;16.274;2022-10-31T00:29:33;14.10;99.90
49124;DHT22;48506;48.202;16.274;2022-10-31T00:32:00;14.10;99.90
49124;DHT22;48506;48.202;16.274;2022-10-31T00:34:25;14.10;99.90
49124;DHT22;48506;48.202;16.274;2022-10-31T00:36:51;14.10;99.90
49124;DHT22;48506;48.202;16.274;2022-10-31T00:39:17;14.10;99.90
49124;DHT22;48506;48.202;16.274;2022-10-31T00:41:43;14.10;99.90
49124;DHT22;48506;48.202;16.274;2022-10-31T00:44:09;14.10;99.90
49124;DHT22;48506;48.202;16.274;2022-10-31T00:46:35;14.10;99.90
49124;DHT22;48506;48.202;16.274;2022-10-31T00:49:01;14.00;99.90
49124;DHT22;48506;48.202;16.274;2022-10-31T00:51:26;14.00;99.90
49124;DHT22;48506;48.202;16.274;2022-10-31T00:53:54;14.00;99.90
49124;DHT22;48506;48.202;16.274;2022-10-31T00:56:20;14.00;99.90
49124;DHT22;48506;48.202;16.274;2022-10-31T00:58:46;14.00;99.90
49124;DHT22;48506;48.202;16.274;2022-10-31T01:01:12;14.00;99.90
49124;DHT22;48506;48.202;16.274;2022-10-31T01:03:38;14.00;99.90
49124;DHT22;48506;48.202;16.274;2022-10-31T01:06:06;14.00;99.90
49124;DHT22;48506;48.202;16.274;2022-10-31T01:08:33;14.00;99.90
49124;DHT22;48506;48.202;16.274;2022-10-31T01:11:00;14.00;99.90
49124;DHT22;48506;48.202;16.274;2022-10-31T01:13:27;14.00;99.90
49124;DHT22;48506;48.202;16.274;2022-10-31T01:15:54;13.90;99.90
49124;DHT22;48506;48.202;16.274;2022-10-31T01:18:21;13.90;99.90
49124;DHT22;48506;48.202;16.274;2022-10-31T01:20:47;13.90;99.90
49124;DHT22;48506;48.202;16.274;2022-10-31T01:23:14;13.90;99.90
49124;DHT22;48506;48.202;16.274;2022-10-31T01:25:40;13.90;99.90
49124;DHT22;48506;48.202;16.274;2022-10-31T01:28:08;14.00;99.90
49124;DHT22;48506;48.202;16.274;2022-10-31T01:30:34;14.00;99.90
49124;DHT22;48506;48.202;16.274;2022-10-31T01:33:00;13.90;99.90
49124;DHT22;48506;48.202;16.274;2022-10-31T01:35:25;13.90;99.90
49124;DHT22;48506;48.202;16.274;2022-10-31T01:37:51;13.90;99.90
49124;DHT22;48506;48.202;16.274;2022-10-31T01:40:17;13.90;99.90
49124;DHT22;48506;48.202;16.274;2022-10-31T01:42:42;13.90;99.90
49124;DHT22;48506;48.202;16.274;2022-10-31T01:45:09;13.90;99.90
49124;DHT22;48506;48.202;16.274;2022-10-31T01:47:38;13.90;99.90
49124;DHT22;48506;48.202;16.274;2022-10-31T01:50:09;13.90;99.90
49124;DHT22;48506;48.202;16.274;2022-10-31T01:52:37;13.80;99.90
49124;DHT22;48506;48.202;16.274;2022-10-31T01:57:42;13.80;99.90
49124;DHT22;48506;48.202;16.274;2022-10-31T02:00:10;13.80;99.90
49124;DHT22;48506;48.202;16.274;2022-10-31T02:02:36;13.80;99.90
49124;DHT22;48506;48.202;16.274;2022-10-31T02:05:04;13.70;99.90
49124;DHT22;48506;48.202;16.274;2022-10-31T02:07:33;13.70;99.90
49124;DHT22;48506;48.202;16.274;2022-10-31T02:10:02;13.70;99.90
49124;DHT22;48506;48.202;16.274;2022-10-31T02:12:29;13.60;99.90
49124;DHT22;48506;48.202;16.274;2022-10-31T02:14:55;13.50;99.90
49124;DHT22;48506;48.202;16.274;2022-10-31T02:17:21;13.50;99.90
49124;DHT22;48506;48.202;16.274;2022-10-31T02:41:04;13.40;99.90
49124;DHT22;48506;48.202;16.274;2022-10-31T02:43:35;13.30;99.90
49124;DHT22;48506;48.202;16.274;2022-10-31T02:48:49;13.20;99.90
49124;DHT22;48506;48.202;16.274;2022-10-31T02:51:19;13.10;99.90
49124;DHT22;48506;48.202;16.274;2022-10-31T02:53:47;13.10;99.90
49124;DHT22;48506;48.202;16.274;2022-10-31T02:56:14;13.00;99.90
49124;DHT22;48506;48.202;16.274;2022-10-31T02:58:50;13.10;99.90
49124;DHT22;48506;48.202;16.274;2022-10-31T03:01:20;13.10;99.90
49124;DHT22;48506;48.202;16.274;2022-10-31T03:03:53;13.10;99.90
49124;DHT22;48506;48.202;16.274;2022-10-31T03:06:27;13.10;99.90
49124;DHT22;48506;48.202;16.274;2022-10-31T03:08:59;13.10;99.90
49124;DHT22;48506;48.202;16.274;2022-10-31T03:11:32;13.00;99.90
49124;DHT22;48506;48.202;16.274;2022-10-31T03:14:09;13.00;99.90
49124;DHT22;48506;48.202;16.274;2022-10-31T03:16:51;13.00;99.90
49124;DHT22;48506;48.202;16.274;2022-10-31T03:19:19;13.00;99.90
49124;DHT22;48506;48.202;16.274;2022-10-31T03:22:31;13.00;99.90
49124;DHT22;48506;48.202;16.274;2022-10-31T03:24:38;13.00;99.90
49124;DHT22;48506;48.202;16.274;2022-10-31T03:27:05;13.00;99.90
49124;DHT22;48506;48.202;16.274;2022-10-31T03:29:33;13.00;99.90
49124;DHT22;48506;48.202;16.274;2022-10-31T03:32:01;12.90;99.90
49124;DHT22;48506;48.202;16.274;2022-10-31T03:34:28;12.90;99.90
49124;DHT22;48506;48.202;16.274;2022-10-31T03:36:56;12.90;99.90
49124;DHT22;48506;48.202;16.274;2022-10-31T03:39:23;12.90;99.90
49124;DHT22;48506;48.202;16.274;2022-10-31T03:41:52;12.80;99.90
49124;DHT22;48506;48.202;16.274;2022-10-31T03:44:21;12.80;99.90
49124;DHT22;48506;48.202;16.274;2022-10-31T03:46:48;12.80;99.90
49124;DHT22;48506;48.202;16.274;2022-10-31T03:49:14;12.80;99.90
49124;DHT22;48506;48.202;16.274;2022-10-31T03:51:53;12.80;99.90
49124;DHT22;48506;48.202;16.274;2022-10-31T03:54:25;12.80;99.90
49124;DHT22;48506;48.202;16.274;2022-10-31T03:56:53;12.70;99.90
49124;DHT22;48506;48.202;16.274;2022-10-31T04:01:48;12.60;99.90
49124;DHT22;48506;48.202;16.274;2022-10-31T04:04:15;12.60;99.90
49124;DHT22;48506;48.202;16.274;2022-10-31T04:06:42;12.60;99.90
49124;DHT22;48506;48.202;16.274;2022-10-31T04:09:08;12.60;99.90
49124;DHT22;48506;48.202;16.274;2022-10-31T04:11:36;12.60;99.90
49124;DHT22;48506;48.202;16.274;2022-10-31T04:14:02;12.60;99.90
49124;DHT22;48506;48.202;16.274;2022-10-31T04:16:29;12.60;99.90
49124;DHT22;48506;48.202;16.274;2022-10-31T04:18:56;12.50;99.90
49124;DHT22;48506;48.202;16.274;2022-10-31T04:21:28;12.50;99.90
49124;DHT22;48506;48.202;16.274;2022-10-31T04:23:55;12.50;99.90
49124;DHT22;48506;48.202;16.274;2022-10-31T04:26:22;12.60;99.90
49124;DHT22;48506;48.202;16.274;2022-10-31T04:28:48;12.50;99.90
49124;DHT22;48506;48.202;16.274;2022-10-31T04:31:13;12.60;99.90
49124;DHT22;48506;48.202;16.274;2022-10-31T04:33:40;12.60;99.90
49124;DHT22;48506;48.202;16.274;2022-10-31T04:36:06;12.60;99.90
49124;DHT22;48506;48.202;16.274;2022-10-31T04:38:32;12.60;99.90
49124;DHT22;48506;48.202;16.274;2022-10-31T04:40:57;12.60;99.90
49124;DHT22;48506;48.202;16.274;2022-10-31T04:43:23;12.70;99.90
49124;DHT22;48506;48.202;16.274;2022-10-31T04:45:49;12.70;99.90
49124;DHT22;48506;48.202;16.274;2022-10-31T04:48:14;12.70;99.90
49124;DHT22;48506;48.202;16.274;2022-10-31T04:50:40;12.60;99.90
49124;DHT22;48506;48.202;16.274;2022-10-31T04:53:07;12.60;99.90
49124;DHT22;48506;48.202;16.274;2022-10-31T04:55:33;12.60;99.90
49124;DHT22;48506;48.202;16.274;2022-10-31T04:58:00;12.60;99.90
49124;DHT22;48506;48.202;16.274;2022-10-31T05:00:26;12.60;99.90
49124;DHT22;48506;48.202;16.274;2022-10-31T05:02:52;12.60;99.90
49124;DHT22;48506;48.202;16.274;2022-10-31T05:05:20;12.60;99.90
49124;DHT22;48506;48.202;16.274;2022-10-31T05:07:46;12.60;99.90
49124;DHT22;48506;48.202;16.274;2022-10-31T05:10:13;12.60;99.90
49124;DHT22;48506;48.202;16.274;2022-10-31T05:12:52;12.60;99.90
49124;DHT22;48506;48.202;16.274;2022-10-31T05:15:19;12.50;99.90
49124;DHT22;48506;48.202;16.274;2022-10-31T05:17:45;12.60;99.90
49124;DHT22;48506;48.202;16.274;2022-10-31T05:20:11;12.60;99.90
49124;DHT22;48506;48.202;16.274;2022-10-31T05:22:41;12.60;99.90
49124;DHT22;48506;48.202;16.274;2022-10-31T05:25:07;12.50;99.90
49124;DHT22;48506;48.202;16.274;2022-10-31T05:27:33;12.50;99.90
49124;DHT22;48506;48.202;16.274;2022-10-31T05:30:00;12.50;99.90
49124;DHT22;48506;48.202;16.274;2022-10-31T05:32:26;12.40;99.90
49124;DHT22;48506;48.202;16.274;2022-10-31T05:34:52;12.30;99.90
49124;DHT22;48506;48.202;16.274;2022-10-31T05:37:17;12.30;99.90
49124;DHT22;48506;48.202;16.274;2022-10-31T05:39:44;12.40;99.90
49124;DHT22;48506;48.202;16.274;2022-10-31T05:42:09;12.30;99.90
49124;DHT22;48506;48.202;16.274;2022-10-31T05:44:35;12.30;99.90
49124;DHT22;48506;48.202;16.274;2022-10-31T05:47:01;12.30;99.90
49124;DHT22;48506;48.202;16.274;2022-10-31T05:49:27;12.30;99.90
49124;DHT22;48506;48.202;16.274;2022-10-31T05:51:53;12.20;99.90
49124;DHT22;48506;48.202;16.274;2022-10-31T05:54:19;12.30;99.90
49124;DHT22;48506;48.202;16.274;2022-10-31T05:56:45;12.30;99.90
49124;DHT22;48506;48.202;16.274;2022-10-31T05:59:11;12.30;99.90
49124;DHT22;48506;48.202;16.274;2022-10-31T06:01:37;12.40;99.90
49124;DHT22;48506;48.202;16.274;2022-10-31T06:04:03;12.40;99.90
49124;DHT22;48506;48.202;16.274;2022-10-31T06:06:28;12.40;99.90
49124;DHT22;48506;48.202;16.274;2022-10-31T06:08:54;12.50;99.90
49124;DHT22;48506;48.202;16.274;2022-10-31T06:11:20;12.50;99.90
49124;DHT22;48506;48.202;16.274;2022-10-31T06:13:47;12.40;99.90
49124;DHT22;48506;48.202;16.274;2022-10-31T06:16:13;12.50;99.90
49124;DHT22;48506;48.202;16.274;2022-10-31T06:18:38;12.50;99.90
49124;DHT22;48506;48.202;16.274;2022-10-31T06:21:04;12.50;99.90
49124;DHT22;48506;48.202;16.274;2022-10-31T06:23:30;12.50;99.90
49124;DHT22;48506;48.202;16.274;2022-10-31T06:25:55;12.50;99.90
49124;DHT22;48506;48.202;16.274;2022-10-31T06:28:21;12.50;99.90
49124;DHT22;48506;48.202;16.274;2022-10-31T06:30:48;12.50;99.90
49124;DHT22;48506;48.202;16.274;2022-10-31T06:33:14;12.50;99.90
49124;DHT22;48506;48.202;16.274;2022-10-31T06:35:44;12.50;99.90
49124;DHT22;48506;48.202;16.274;2022-10-31T06:38:11;12.50;99.90
49124;DHT22;48506;48.202;16.274;2022-10-31T06:40:37;12.50;99.90
49124;DHT22;48506;48.202;16.274;2022-10-31T06:43:04;12.60;99.90
49124;DHT22;48506;48.202;16.274;2022-10-31T06:45:29;12.70;99.90
49124;DHT22;48506;48.202;16.274;2022-10-31T06:47:55;12.70;99.90
49124;DHT22;48506;48.202;16.274;2022-10-31T06:50:22;12.70;99.90
49124;DHT22;48506;48.202;16.274;2022-10-31T06:52:50;12.60;99.90
49124;DHT22;48506;48.202;16.274;2022-10-31T06:55:16;12.60;99.90
49124;DHT22;48506;48.202;16.274;2022-10-31T06:57:42;12.70;99.90
49124;DHT22;48506;48.202;16.274;2022-10-31T07:00:08;12.80;99.90
49124;DHT22;48506;48.202;16.274;2022-10-31T07:02:34;12.70;99.90
49124;DHT22;48506;48.202;16.274;2022-10-31T07:04:59;12.70;99.90
49124;DHT22;48506;48.202;16.274;2022-10-31T07:07:26;12.70;99.90
49124;DHT22;48506;48.202;16.274;2022-10-31T07:09:51;12.80;99.90
49124;DHT22;48506;48.202;16.274;2022-10-31T07:12:17;12.80;99.90
49124;DHT22;48506;48.202;16.274;2022-10-31T07:14:43;12.90;99.90
49124;DHT22;48506;48.202;16.274;2022-10-31T07:17:09;12.90;99.90
49124;DHT22;48506;48.202;16.274;2022-10-31T07:19:36;13.00;99.90
49124;DHT22;48506;48.202;16.274;2022-10-31T07:22:02;13.00;99.90
49124;DHT22;48506;48.202;16.274;2022-10-31T07:24:28;13.00;99.90
49124;DHT22;48506;48.202;16.274;2022-10-31T07:26:56;13.00;99.90
49124;DHT22;48506;48.202;16.274;2022-10-31T07:29:22;13.10;99.90
49124;DHT22;48506;48.202;16.274;2022-10-31T07:31:48;13.00;99.90
49124;DHT22;48506;48.202;16.274;2022-10-31T07:34:13;13.00;99.90
49124;DHT22;48506;48.202;16.274;2022-10-31T07:36:39;13.10;99.90
49124;DHT22;48506;48.202;16.274;2022-10-31T07:39:06;13.20;99.90
49124;DHT22;48506;48.202;16.274;2022-10-31T07:41:32;13.30;99.90
49124;DHT22;48506;48.202;16.274;2022-10-31T07:43:58;13.40;99.90
49124;DHT22;48506;48.202;16.274;2022-10-31T07:46:24;13.50;99.90
49124;DHT22;48506;48.202;16.274;2022-10-31T07:48:50;13.40;99.90
49124;DHT22;48506;48.202;16.274;2022-10-31T07:51:15;13.40;99.90
49124;DHT22;48506;48.202;16.274;2022-10-31T07:53:41;13.50;99.90
49124;DHT22;48506;48.202;16.274;2022-10-31T07:56:07;13.50;99.90
49124;DHT22;48506;48.202;16.274;2022-10-31T07:58:33;13.50;99.90
49124;DHT22;48506;48.202;16.274;2022-10-31T08:00:59;13.60;99.90
49124;DHT22;48506;48.202;16.274;2022-10-31T08:03:25;13.60;99.90
49124;DHT22;48506;48.202;16.274;2022-10-31T08:05:51;13.60;99.90
49124;DHT22;48506;48.202;16.274;2022-10-31T08:08:17;13.70;99.90
49124;DHT22;48506;48.202;16.274;2022-10-31T08:10:42;13.70;99.90
49124;DHT22;48506;48.202;16.274;2022-10-31T08:13:12;13.70;99.90
49124;DHT22;48506;48.202;16.274;2022-10-31T08:15:38;13.80;99.90
49124;DHT22;48506;48.202;16.274;2022-10-31T08:18:10;13.90;99.90
49124;DHT22;48506;48.202;16.274;2022-10-31T08:20:36;13.90;99.90
49124;DHT22;48506;48.202;16.274;2022-10-31T08:23:03;13.80;99.90
49124;DHT22;48506;48.202;16.274;2022-10-31T08:25:29;13.90;99.90
49124;DHT22;48506;48.202;16.274;2022-10-31T08:27:57;14.00;99.90
49124;DHT22;48506;48.202;16.274;2022-10-31T08:30:25;14.00;99.90
49124;DHT22;48506;48.202;16.274;2022-10-31T08:35:28;14.00;99.90
49124;DHT22;48506;48.202;16.274;2022-10-31T08:37:55;14.10;99.90
49124;DHT22;48506;48.202;16.274;2022-10-31T08:40:22;14.10;99.90
49124;DHT22;48506;48.202;16.274;2022-10-31T08:43:01;14.10;99.90
49124;DHT22;48506;48.202;16.274;2022-10-31T08:45:27;14.10;99.90
49124;DHT22;48506;48.202;16.274;2022-10-31T08:48:00;14.20;99.90
49124;DHT22;48506;48.202;16.274;2022-10-31T08:50:26;14.20;99.90
49124;DHT22;48506;48.202;16.274;2022-10-31T08:52:52;14.20;99.90
49124;DHT22;48506;48.202;16.274;2022-10-31T08:55:18;14.30;99.90
49124;DHT22;48506;48.202;16.274;2022-10-31T08:57:44;14.40;99.90
49124;DHT22;48506;48.202;16.274;2022-10-31T09:00:11;14.40;99.90
49124;DHT22;48506;48.202;16.274;2022-10-31T09:02:37;14.50;99.90
49124;DHT22;48506;48.202;16.274;2022-10-31T09:05:04;14.60;99.90
49124;DHT22;48506;48.202;16.274;2022-10-31T09:07:30;14.70;99.90
49124;DHT22;48506;48.202;16.274;2022-10-31T09:09:56;14.60;99.90
49124;DHT22;48506;48.202;16.274;2022-10-31T09:12:21;14.60;99.90
49124;DHT22;48506;48.202;16.274;2022-10-31T09:14:49;14.60;99.90
49124;DHT22;48506;48.202;16.274;2022-10-31T09:17:15;14.70;99.90
49124;DHT22;48506;48.202;16.274;2022-10-31T09:19:41;14.70;99.90
49124;DHT22;48506;48.202;16.274;2022-10-31T09:22:06;14.80;99.90
49124;DHT22;48506;48.202;16.274;2022-10-31T09:24:32;14.90;99.90
49124;DHT22;48506;48.202;16.274;2022-10-31T09:26:58;15.00;99.90
49124;DHT22;48506;48.202;16.274;2022-10-31T09:29:24;15.20;99.90
49124;DHT22;48506;48.202;16.274;2022-10-31T09:31:50;15.30;99.90
49124;DHT22;48506;48.202;16.274;2022-10-31T09:34:16;15.40;99.90
49124;DHT22;48506;48.202;16.274;2022-10-31T09:36:41;15.30;99.90
49124;DHT22;48506;48.202;16.274;2022-10-31T09:39:08;15.20;99.90
49124;DHT22;48506;48.202;16.274;2022-10-31T09:51:59;15.20;99.90
49124;DHT22;48506;48.202;16.274;2022-10-31T09:54:34;15.10;99.90
49124;DHT22;48506;48.202;16.274;2022-10-31T09:57:02;15.20;99.90
49124;DHT22;48506;48.202;16.274;2022-10-31T09:59:35;15.30;99.90
49124;DHT22;48506;48.202;16.274;2022-10-31T10:02:06;15.20;99.90
49124;DHT22;48506;48.202;16.274;2022-10-31T10:04:43;15.20;99.90
49124;DHT22;48506;48.202;16.274;2022-10-31T10:07:16;15.20;99.90
49124;DHT22;48506;48.202;16.274;2022-10-31T10:09:43;15.30;99.90
49124;DHT22;48506;48.202;16.274;2022-10-31T10:22:42;15.50;99.80
49124;DHT22;48506;48.202;16.274;2022-10-31T10:30:19;15.70;99.90
49124;DHT22;48506;48.202;16.274;2022-10-31T10:32:50;15.70;99.90
49124;DHT22;48506;48.202;16.274;2022-10-31T10:37:43;15.80;99.90
49124;DHT22;48506;48.202;16.274;2022-10-31T10:40:15;15.90;99.90
49124;DHT22;48506;48.202;16.274;2022-10-31T10:42:44;16.00;99.90
49124;DHT22;48506;48.202;16.274;2022-10-31T10:45:30;15.90;99.50
49124;DHT22;48506;48.202;16.274;2022-10-31T10:48:16;15.90;99.80
49124;DHT22;48506;48.202;16.274;2022-10-31T10:50:48;15.90;99.50
49124;DHT22;48506;48.202;16.274;2022-10-31T10:56:02;15.90;99.70
49124;DHT22;48506;48.202;16.274;2022-10-31T10:58:32;15.90;99.70
49124;DHT22;48506;48.202;16.274;2022-10-31T11:00:58;15.90;99.70
49124;DHT22;48506;48.202;16.274;2022-10-31T11:03:26;15.90;99.70
49124;DHT22;48506;48.202;16.274;2022-10-31T11:05:54;15.90;99.30
49124;DHT22;48506;48.202;16.274;2022-10-31T11:08:25;15.90;99.50
49124;DHT22;48506;48.202;16.274;2022-10-31T11:11:00;15.90;99.60
49124;DHT22;48506;48.202;16.274;2022-10-31T11:13:27;15.80;99.70
49124;DHT22;48506;48.202;16.274;2022-10-31T11:15:56;15.80;99.50
49124;DHT22;48506;48.202;16.274;2022-10-31T11:18:23;15.80;99.80
49124;DHT22;48506;48.202;16.274;2022-10-31T11:20:55;15.70;99.60
49124;DHT22;48506;48.202;16.274;2022-10-31T11:23:23;15.70;99.70
49124;DHT22;48506;48.202;16.274;2022-10-31T11:28:20;15.80;99.90
49124;DHT22;48506;48.202;16.274;2022-10-31T11:30:49;15.80;99.90
49124;DHT22;48506;48.202;16.274;2022-10-31T11:33:21;15.80;99.90
49124;DHT22;48506;48.202;16.274;2022-10-31T11:35:48;15.80;99.90
49124;DHT22;48506;48.202;16.274;2022-10-31T11:38:18;15.80;99.70
49124;DHT22;48506;48.202;16.274;2022-10-31T11:40:51;15.80;99.80
49124;DHT22;48506;48.202;16.274;2022-10-31T11:43:17;15.80;99.70
49124;DHT22;48506;48.202;16.274;2022-10-31T11:45:44;15.80;99.90
49124;DHT22;48506;48.202;16.274;2022-10-31T11:48:16;15.90;99.90
49124;DHT22;48506;48.202;16.274;2022-10-31T11:50:48;15.90;99.90
49124;DHT22;48506;48.202;16.274;2022-10-31T11:53:34;15.90;99.90
49124;DHT22;48506;48.202;16.274;2022-10-31T11:56:04;15.90;99.80
49124;DHT22;48506;48.202;16.274;2022-10-31T11:58:31;15.90;99.70
49124;DHT22;48506;48.202;16.274;2022-10-31T12:00:57;15.90;99.70
49124;DHT22;48506;48.202;16.274;2022-10-31T12:05:52;15.80;99.70
49124;DHT22;48506;48.202;16.274;2022-10-31T12:08:19;15.80;99.70
49124;DHT22;48506;48.202;16.274;2022-10-31T12:16:26;15.90;99.80
49124;DHT22;48506;48.202;16.274;2022-10-31T12:45:00;15.80;99.70
49124;DHT22;48506;48.202;16.274;2022-10-31T12:55:35;15.70;99.90
49124;DHT22;48506;48.202;16.274;2022-10-31T12:58:26;15.70;99.90
49124;DHT22;48506;48.202;16.274;2022-10-31T13:06:17;15.60;99.90
49124;DHT22;48506;48.202;16.274;2022-10-31T13:11:45;15.50;99.90
49124;DHT22;48506;48.202;16.274;2022-10-31T13:16:44;15.50;99.90
49124;DHT22;48506;48.202;16.274;2022-10-31T13:19:19;15.40;99.90
49124;DHT22;48506;48.202;16.274;2022-10-31T13:24:20;15.40;99.90
49124;DHT22;48506;48.202;16.274;2022-10-31T13:26:56;15.30;99.90
49124;DHT22;48506;48.202;16.274;2022-10-31T13:31:49;15.20;99.90
49124;DHT22;48506;48.202;16.274;2022-10-31T13:34:25;15.20;99.90
49124;DHT22;48506;48.202;16.274;2022-10-31T13:37:05;15.20;99.90
49124;DHT22;48506;48.202;16.274;2022-10-31T13:44:29;15.20;99.90
49124;DHT22;48506;48.202;16.274;2022-10-31T13:46:56;15.10;99.90
49124;DHT22;48506;48.202;16.274;2022-10-31T13:51:51;15.10;99.90
49124;DHT22;48506;48.202;16.274;2022-10-31T13:54:39;15.10;99.90
49124;DHT22;48506;48.202;16.274;2022-10-31T13:59:51;15.10;99.90
49124;DHT22;48506;48.202;16.274;2022-10-31T14:02:24;15.20;99.90
49124;DHT22;48506;48.202;16.274;2022-10-31T14:04:56;15.20;99.90
49124;DHT22;48506;48.202;16.274;2022-10-31T14:07:23;15.20;99.90
49124;DHT22;48506;48.202;16.274;2022-10-31T14:14:55;15.10;99.90
49124;DHT22;48506;48.202;16.274;2022-10-31T14:17:23;15.10;99.90
49124;DHT22;48506;48.202;16.274;2022-10-31T14:19:58;15.10;99.90
49124;DHT22;48506;48.202;16.274;2022-10-31T14:22:28;15.10;99.90
49124;DHT22;48506;48.202;16.274;2022-10-31T14:24:55;15.00;99.90
49124;DHT22;48506;48.202;16.274;2022-10-31T14:29:53;15.00;99.90
49124;DHT22;48506;48.202;16.274;2022-10-31T14:32:21;14.90;99.90
49124;DHT22;48506;48.202;16.274;2022-10-31T14:37:32;14.90;99.90
49124;DHT22;48506;48.202;16.274;2022-10-31T14:45:05;14.80;99.90
49124;DHT22;48506;48.202;16.274;2022-10-31T14:47:51;14.70;99.90
49124;DHT22;48506;48.202;16.274;2022-10-31T14:53:41;14.70;99.90
49124;DHT22;48506;48.202;16.274;2022-10-31T14:56:09;14.70;99.90
49124;DHT22;48506;48.202;16.274;2022-10-31T14:58:39;14.60;99.90
49124;DHT22;48506;48.202;16.274;2022-10-31T15:01:06;14.70;99.90
49124;DHT22;48506;48.202;16.274;2022-10-31T15:03:39;14.70;99.90
49124;DHT22;48506;48.202;16.274;2022-10-31T15:06:11;14.60;99.90
49124;DHT22;48506;48.202;16.274;2022-10-31T15:08:38;14.60;99.90
49124;DHT22;48506;48.202;16.274;2022-10-31T15:11:14;14.60;99.90
49124;DHT22;48506;48.202;16.274;2022-10-31T15:13:51;14.60;99.90
49124;DHT22;48506;48.202;16.274;2022-10-31T15:16:22;14.50;99.90
49124;DHT22;48506;48.202;16.274;2022-10-31T15:18:59;14.60;99.90
49124;DHT22;48506;48.202;16.274;2022-10-31T15:21:27;14.50;99.90
49124;DHT22;48506;48.202;16.274;2022-10-31T15:23:56;14.50;99.90
49124;DHT22;48506;48.202;16.274;2022-10-31T15:26:38;14.50;99.90
49124;DHT22;48506;48.202;16.274;2022-10-31T15:29:13;14.50;99.90
49124;DHT22;48506;48.202;16.274;2022-10-31T15:31:39;14.50;99.90
49124;DHT22;48506;48.202;16.274;2022-10-31T15:34:11;14.50;99.90
49124;DHT22;48506;48.202;16.274;2022-10-31T15:36:38;14.50;99.90
49124;DHT22;48506;48.202;16.274;2022-10-31T15:39:04;14.40;99.90
49124;DHT22;48506;48.202;16.274;2022-10-31T15:41:32;14.40;99.90
49124;DHT22;48506;48.202;16.274;2022-10-31T15:44:10;14.40;99.90
49124;DHT22;48506;48.202;16.274;2022-10-31T15:46:38;14.40;99.90
49124;DHT22;48506;48.202;16.274;2022-10-31T15:49:03;14.40;99.90
49124;DHT22;48506;48.202;16.274;2022-10-31T15:51:31;14.30;99.90
49124;DHT22;48506;48.202;16.274;2022-10-31T15:53:58;14.30;99.90
49124;DHT22;48506;48.202;16.274;2022-10-31T15:56:29;14.30;99.90
49124;DHT22;48506;48.202;16.274;2022-10-31T15:58:56;14.20;99.90
49124;DHT22;48506;48.202;16.274;2022-10-31T16:01:26;14.20;99.90
49124;DHT22;48506;48.202;16.274;2022-10-31T16:03:59;14.20;99.90
49124;DHT22;48506;48.202;16.274;2022-10-31T16:06:25;14.30;99.90
49124;DHT22;48506;48.202;16.274;2022-10-31T16:08:51;14.30;99.90
49124;DHT22;48506;48.202;16.274;2022-10-31T16:11:34;14.30;99.90
49124;DHT22;48506;48.202;16.274;2022-10-31T16:14:13;14.30;99.90
49124;DHT22;48506;48.202;16.274;2022-10-31T16:16:42;14.30;99.90
49124;DHT22;48506;48.202;16.274;2022-10-31T16:19:19;14.30;99.90
49124;DHT22;48506;48.202;16.274;2022-10-31T16:21:46;14.30;99.90
49124;DHT22;48506;48.202;16.274;2022-10-31T16:24:17;14.30;99.90
49124;DHT22;48506;48.202;16.274;2022-10-31T16:26:50;14.20;99.90
49124;DHT22;48506;48.202;16.274;2022-10-31T16:31:52;14.20;99.90
49124;DHT22;48506;48.202;16.274;2022-10-31T16:34:20;14.20;99.90
49124;DHT22;48506;48.202;16.274;2022-10-31T16:36:47;14.20;99.90
49124;DHT22;48506;48.202;16.274;2022-10-31T16:39:14;14.20;99.90
49124;DHT22;48506;48.202;16.274;2022-10-31T16:41:40;14.20;99.90
49124;DHT22;48506;48.202;16.274;2022-10-31T16:44:21;14.10;99.90
49124;DHT22;48506;48.202;16.274;2022-10-31T16:46:47;14.10;99.90
49124;DHT22;48506;48.202;16.274;2022-10-31T16:49:14;14.10;99.90
49124;DHT22;48506;48.202;16.274;2022-10-31T16:51:41;14.10;99.90
49124;DHT22;48506;48.202;16.274;2022-10-31T16:54:07;14.10;99.90
49124;DHT22;48506;48.202;16.274;2022-10-31T16:56:36;14.10;99.90
49124;DHT22;48506;48.202;16.274;2022-10-31T16:59:03;14.10;99.90
49124;DHT22;48506;48.202;16.274;2022-10-31T17:01:31;14.00;99.90
49124;DHT22;48506;48.202;16.274;2022-10-31T17:03:57;14.00;99.90
49124;DHT22;48506;48.202;16.274;2022-10-31T17:06:23;13.90;99.90
49124;DHT22;48506;48.202;16.274;2022-10-31T17:08:52;13.80;99.90
49124;DHT22;48506;48.202;16.274;2022-10-31T17:11:19;13.80;99.90
49124;DHT22;48506;48.202;16.274;2022-10-31T17:13:46;13.80;99.90
49124;DHT22;48506;48.202;16.274;2022-10-31T17:16:12;13.80;99.90
49124;DHT22;48506;48.202;16.274;2022-10-31T17:18:39;13.70;99.90
49124;DHT22;48506;48.202;16.274;2022-10-31T17:21:05;13.70;99.90
49124;DHT22;48506;48.202;16.274;2022-10-31T17:23:32;13.70;99.90
49124;DHT22;48506;48.202;16.274;2022-10-31T17:25:58;13.70;99.90
49124;DHT22;48506;48.202;16.274;2022-10-31T17:28:25;13.70;99.90
49124;DHT22;48506;48.202;16.274;2022-10-31T17:30:54;13.70;99.90
49124;DHT22;48506;48.202;16.274;2022-10-31T17:33:22;13.60;99.90
49124;DHT22;48506;48.202;16.274;2022-10-31T17:35:49;13.60;99.90
49124;DHT22;48506;48.202;16.274;2022-10-31T17:38:15;13.60;99.90
49124;DHT22;48506;48.202;16.274;2022-10-31T17:40:40;13.50;99.90
49124;DHT22;48506;48.202;16.274;2022-10-31T17:43:08;13.50;99.90
49124;DHT22;48506;48.202;16.274;2022-10-31T17:45:37;13.50;99.90
49124;DHT22;48506;48.202;16.274;2022-10-31T17:48:03;13.50;99.90
49124;DHT22;48506;48.202;16.274;2022-10-31T17:50:29;13.50;99.90
49124;DHT22;48506;48.202;16.274;2022-10-31T17:52:56;13.50;99.90
49124;DHT22;48506;48.202;16.274;2022-10-31T17:55:23;13.50;99.90